createdAt,value
2017-04-10T00:02:10.105Z,0
2017-04-10T00:12:20.083Z,0
2017-04-10T00:22:30.110Z,0
2017-04-10T00:32:40.124Z,0
2017-04-10T00:42:50.250Z,0
2017-04-10T00:53:00.426Z,0
2017-04-10T01:03:10.564Z,0
2017-04-10T01:13:20.786Z,0
2017-04-10T01:23:31.084Z,0
2017-04-10T01:33:41.453Z,0
2017-04-10T01:43:51.792Z,0
2017-04-10T01:54:02.138Z,0
2017-04-10T02:04:12.503Z,0
2017-04-10T02:14:22.889Z,0
2017-04-10T02:24:33.263Z,0
2017-04-10T02:34:43.656Z,0
2017-04-10T02:44:54.085Z,0
2017-04-10T02:55:04.487Z,0
2017-04-10T03:05:14.923Z,0
2017-04-10T03:15:25.380Z,0
2017-04-10T03:25:35.860Z,0
2017-04-10T03:35:46.284Z,0
2017-04-10T03:45:56.708Z,0
2017-04-10T03:56:07.129Z,0
2017-04-10T04:06:17.571Z,4
2017-04-10T04:16:28.054Z,8
2017-04-10T04:26:38.480Z,52
2017-04-10T04:36:48.942Z,248
2017-04-10T04:46:59.372Z,684
2017-04-10T04:57:09.800Z,1412
2017-04-10T05:07:20.150Z,2360
2017-04-10T05:17:30.397Z,3036
2017-04-10T05:27:40.598Z,4184
2017-04-10T05:37:50.718Z,4812
2017-04-10T05:48:00.836Z,4572
2017-04-10T05:58:10.959Z,7848
2017-04-10T06:08:21.022Z,9764
2017-04-10T06:18:31.055Z,9200
2017-04-10T06:28:41.139Z,8744
2017-04-10T06:38:51.309Z,8872
2017-04-10T06:49:01.423Z,8120
2017-04-10T06:59:11.567Z,10656
2017-04-10T07:09:21.709Z,10984
2017-04-10T07:19:31.806Z,10720
2017-04-10T07:29:41.906Z,14212
2017-04-10T07:39:51.932Z,17856
2017-04-10T07:50:01.936Z,15632
2017-04-10T08:00:11.808Z,22016
2017-04-10T08:10:21.604Z,24640
2017-04-10T08:20:31.305Z,25152
2017-04-10T08:30:40.946Z,11612
2017-04-10T08:40:50.695Z,8472
2017-04-10T08:51:00.582Z,16064
2017-04-10T09:01:10.437Z,20960
2017-04-10T09:11:20.275Z,12248
2017-04-10T09:21:30.080Z,7796
2017-04-10T09:31:39.961Z,7172
2017-04-10T09:41:49.911Z,11800
2017-04-10T09:51:59.938Z,31616
2017-04-10T10:02:09.771Z,15892
2017-04-10T10:12:19.435Z,29184
2017-04-10T10:22:29.031Z,14140
2017-04-10T10:32:38.748Z,25696
2017-04-10T10:42:48.370Z,21152
2017-04-10T10:52:57.958Z,12712
2017-04-10T11:03:07.609Z,32320
2017-04-10T11:13:17.244Z,12572
2017-04-10T11:23:26.932Z,40224
2017-04-10T11:33:36.468Z,72928
2017-04-10T11:43:45.935Z,74752
2017-04-10T11:53:55.123Z,111648
2017-04-10T12:04:04.060Z,31328
2017-04-10T12:14:13.148Z,19008
2017-04-10T12:24:22.487Z,14592
2017-04-10T12:34:31.968Z,39296
2017-04-10T12:44:41.401Z,52480
2017-04-10T12:54:50.755Z,130432
2017-04-10T13:04:59.817Z,35232
2017-04-10T13:15:08.848Z,34656
2017-04-10T13:25:18.078Z,24448
2017-04-10T13:35:27.430Z,37888
2017-04-10T13:45:36.766Z,112896
2017-04-10T13:55:45.960Z,108832
2017-04-10T14:05:54.954Z,16640
2017-04-10T14:16:04.140Z,28544
2017-04-10T14:26:13.399Z,29280
2017-04-10T14:36:22.693Z,19136
2017-04-10T14:46:31.879Z,16940
2017-04-10T14:56:41.101Z,25120
2017-04-10T15:06:50.168Z,71360
2017-04-10T15:16:59.116Z,16364
2017-04-10T15:27:08.471Z,15368
2017-04-10T15:37:18.056Z,18528
2017-04-10T15:47:27.736Z,12284
2017-04-10T15:57:37.520Z,15792
2017-04-10T16:07:47.365Z,11556
2017-04-10T16:17:57.127Z,9292
2017-04-10T16:28:07.061Z,8584
2017-04-10T16:38:17.047Z,8860
2017-04-10T16:48:26.967Z,7900
2017-04-10T16:58:36.974Z,4784
2017-04-10T17:08:47.030Z,4432
2017-04-10T17:18:57.153Z,4784
2017-04-10T17:29:07.336Z,3220
2017-04-10T17:39:17.544Z,2312
2017-04-10T17:49:27.812Z,1996
2017-04-10T17:59:38.168Z,1220
2017-04-10T18:09:48.605Z,700
2017-04-10T18:19:59.062Z,324
2017-04-10T18:30:09.585Z,112
2017-04-10T18:40:20.165Z,20
2017-04-10T18:50:30.818Z,4
2017-04-10T19:00:41.559Z,0
2017-04-10T19:10:52.314Z,0
2017-04-10T19:21:03.095Z,0
2017-04-10T19:31:13.900Z,0
2017-04-10T19:41:24.697Z,0
2017-04-10T19:51:35.525Z,0
2017-04-10T20:01:46.393Z,0
2017-04-10T20:11:57.259Z,0
2017-04-10T20:22:08.117Z,0
2017-04-10T20:32:19.025Z,0
2017-04-10T20:42:29.938Z,0
2017-04-10T20:52:40.840Z,0
2017-04-10T21:02:51.774Z,0
2017-04-10T21:13:02.712Z,0
2017-04-10T21:23:13.656Z,0
2017-04-10T21:33:24.663Z,0
2017-04-10T21:43:35.736Z,0
2017-04-10T21:53:46.801Z,0
2017-04-10T22:03:57.900Z,0
2017-04-10T22:14:09.012Z,0
2017-04-10T22:24:20.199Z,0
2017-04-10T22:34:31.373Z,0
2017-04-10T22:44:42.599Z,0
2017-04-10T22:54:53.837Z,0
2017-04-10T23:05:05.140Z,0
2017-04-10T23:15:16.393Z,0
2017-04-10T23:25:27.680Z,0
2017-04-10T23:35:38.991Z,0
2017-04-10T23:45:50.334Z,0
2017-04-10T23:56:01.725Z,0
